ADDS TAF Data INFO
IDs: Format: Raw Decoded Include METARs

Data at: 0854 UTC 22 Jul 2018

KCMH 220851Z 08004KT 10SM BKN014 19/18 A2969 RMK AO2 SLP046 T01940183 56007

KCMH 220531Z 2206/2306 14004KT P6SM BKN035
  FM220900 08007KT P6SM VCSH OVC008
  FM221400 07007KT P6SM -SHRA OVC018
  FM221800 05008KT P6SM -SHRA BKN025
  FM230200 05007KT P6SM VCSH BKN015